Dewitt Spain (M01)
Memphis, TN
Field Elevation: 224
Lat: 35°12.04N  Long: 90°03.24W
CTAF/Unicom Freq: 122.7000
   
     For Weather-by-Phone, call 901-354-9296
Weather Advisories
4/19/2014 04:18 Z
Altimeter 30.20" Hg
Wind 350° @ 0 KT
Gusts --
Visibility 10 SM
Ceiling SCT082
Temperature 15° C (59° F)
Dewpoint 15° C (59° F)
Relative Humidity 100%
Density Altitude --
Condensation Altitude --
  Wind and Runways
Indicated Runway = 35
History
 
 
More Info
All DigiWx sites map
NOAA Forecast
 
Airport IQ 5010
(2M8) Charles W. Baker Airport
(3M3) Collegedale Muni
 
about DigiWx
 
FAA Disclaimer: The data displayed is for advisory purposes only and is not to be used for flight planning or operations. For official data, please call 901-354-9296 to hear the current automated AWOS voice message.
  METAR M01 190418Z AUTO 35000KT 10SM SCT082 15/15 A3020